createdAt,value
2022-11-29T04:39:18.385Z,-1.87
2022-11-29T04:42:23.752Z,-1.95
2022-11-29T04:45:31.622Z,-1.96
2022-11-29T04:48:21.288Z,-1.98
2022-11-29T04:51:05.131Z,-2.01
2022-11-29T04:53:53.332Z,-2.07
2022-11-29T04:56:38.086Z,-2.10
2022-11-29T04:59:19.493Z,-2.13
2022-11-29T05:02:04.041Z,-2.15
2022-11-29T05:04:47.356Z,-2.16
2022-11-29T05:07:30.692Z,-2.17
2022-11-29T05:10:15.269Z,-2.19
2022-11-29T05:12:57.496Z,-2.22
2022-11-29T05:15:56.008Z,-2.21
2022-11-29T05:18:49.990Z,-2.23
2022-11-29T05:21:31.972Z,-2.27
2022-11-29T05:24:18.644Z,-2.31
2022-11-29T05:26:57.233Z,-2.33
2022-11-29T05:29:40.179Z,-2.37
2022-11-29T05:32:30.477Z,-2.39
2022-11-29T05:35:27.829Z,-2.44
2022-11-29T05:38:09.783Z,-2.49
2022-11-29T05:40:54.216Z,-2.52
2022-11-29T05:43:38.848Z,-2.54
2022-11-29T05:46:19.875Z,-2.58
2022-11-29T05:49:00.083Z,-2.60
2022-11-29T05:51:43.433Z,-2.63
2022-11-29T05:54:26.330Z,-2.67
2022-11-29T05:57:09.110Z,-2.69
2022-11-29T05:59:43.243Z,-2.68
2022-11-29T06:02:30.145Z,-2.67
2022-11-29T06:05:16.557Z,-2.73
2022-11-29T06:07:55.113Z,-2.77
2022-11-29T06:10:34.302Z,-2.79
2022-11-29T06:13:18.868Z,-2.78
2022-11-29T06:16:25.156Z,-2.78
2022-11-29T06:19:42.760Z,-2.81
2022-11-29T06:22:31.739Z,-2.83
2022-11-29T06:25:21.879Z,-2.85
2022-11-29T06:28:11.383Z,-2.87
2022-11-29T06:30:54.341Z,-2.87
2022-11-29T06:33:31.854Z,-2.87
2022-11-29T06:36:16.266Z,-2.87
2022-11-29T06:38:48.984Z,-2.90
2022-11-29T06:41:24.668Z,-2.91
2022-11-29T06:43:58.144Z,-2.91
2022-11-29T06:46:39.785Z,-2.87
2022-11-29T06:54:01.565Z,-2.84
2022-11-29T07:05:44.605Z,-2.71
2022-11-29T07:08:20.129Z,-2.67
2022-11-29T07:11:51.094Z,-2.63
2022-11-29T07:31:58.618Z,-2.03
2022-11-29T07:47:46.976Z,-1.36
2022-11-29T07:50:20.219Z,-1.22
2022-11-29T07:52:59.127Z,-1.11
2022-11-29T07:55:33.170Z,-1.00
2022-11-29T07:58:13.996Z,-0.94
2022-11-29T08:01:10.860Z,-0.86
2022-11-29T08:03:50.243Z,-0.81
2022-11-29T08:10:53.193Z,-0.69
2022-11-29T08:13:31.874Z,-0.68
2022-11-29T08:20:36.761Z,-0.69
2022-11-29T08:27:58.859Z,-0.56
2022-11-29T08:30:32.557Z,-0.49
2022-11-29T08:33:12.346Z,-0.49
2022-11-29T08:35:44.523Z,-0.56
2022-11-29T08:38:22.886Z,-0.58
2022-11-29T08:50:25.792Z,-0.44
2022-11-29T08:53:43.225Z,-0.34
2022-11-29T09:00:04.230Z,-0.22
2022-11-29T09:02:39.542Z,-0.34
2022-11-29T09:06:18.159Z,-0.42
2022-11-29T09:08:59.314Z,-0.41
2022-11-29T09:12:21.788Z,-0.31
2022-11-29T09:15:00.084Z,-0.21
2022-11-29T09:17:32.331Z,-0.13
2022-11-29T09:20:12.966Z,-0.12
2022-11-29T09:22:45.790Z,-0.09
2022-11-29T09:25:24.247Z,-0.06
2022-11-29T09:27:58.539Z,0.02
2022-11-29T09:30:38.440Z,0.08
2022-11-29T09:38:04.670Z,0.32
2022-11-29T09:58:55.285Z,0.51
2022-11-29T10:27:46.344Z,0.72
2022-11-29T10:30:19.596Z,0.80
2022-11-29T10:33:01.438Z,0.85
2022-11-29T10:45:25.320Z,1.25
2022-11-29T10:53:18.907Z,1.25
2022-11-29T11:22:26.719Z,1.52
2022-11-29T11:25:50.205Z,1.60
2022-11-29T11:33:22.583Z,1.56
2022-11-29T11:44:53.694Z,2.55
2022-11-29T11:55:02.680Z,4.32
2022-11-29T12:02:53.032Z,5.27
2022-11-29T12:05:32.386Z,5.49
2022-11-29T12:08:08.142Z,5.66
2022-11-29T12:15:59.555Z,5.64
2022-11-29T12:19:15.181Z,6.01
2022-11-29T12:31:15.002Z,6.08
2022-11-29T12:38:59.941Z,7.03
2022-11-29T13:17:55.593Z,4.95
2022-11-29T13:20:57.637Z,4.69
2022-11-29T13:37:12.057Z,3.78
2022-11-29T13:39:59.041Z,3.66
2022-11-29T13:42:42.034Z,3.57
2022-11-29T13:45:24.328Z,3.51
2022-11-29T13:48:01.895Z,3.46
2022-11-29T13:50:44.487Z,3.42
2022-11-29T13:53:21.580Z,3.38
2022-11-29T13:56:00.767Z,3.26
2022-11-29T13:58:42.333Z,3.14
2022-11-29T14:01:17.651Z,3.07
2022-11-29T14:04:01.784Z,3.04
2022-11-29T14:06:38.553Z,3.00
2022-11-29T14:09:34.227Z,2.98
2022-11-29T14:12:20.593Z,2.95
2022-11-29T14:14:57.668Z,2.94
2022-11-29T14:17:47.763Z,2.91
2022-11-29T14:23:42.238Z,2.84
2022-11-29T14:26:31.470Z,2.73
2022-11-29T14:29:23.585Z,2.60
2022-11-29T14:31:56.923Z,2.47
2022-11-29T14:34:39.018Z,2.40
2022-11-29T14:37:23.531Z,2.33
2022-11-29T14:39:59.158Z,2.26
2022-11-29T14:42:32.413Z,2.18
2022-11-29T14:45:07.028Z,2.11
2022-11-29T14:47:49.279Z,2.04
2022-11-29T14:50:32.908Z,1.96
2022-11-29T14:53:06.644Z,1.88
2022-11-29T14:55:40.079Z,1.81
2022-11-29T14:58:24.191Z,1.75
2022-11-29T15:01:11.158Z,1.66
2022-11-29T15:03:50.744Z,1.60
2022-11-29T15:06:29.090Z,1.56
2022-11-29T15:09:05.770Z,1.52
2022-11-29T15:11:49.608Z,1.49
2022-11-29T15:14:29.943Z,1.47
2022-11-29T15:17:18.866Z,1.44
2022-11-29T15:20:26.086Z,1.40
2022-11-29T15:23:05.344Z,1.32
2022-11-29T15:25:47.187Z,1.27
2022-11-29T15:28:25.119Z,1.26
2022-11-29T15:34:27.938Z,1.25
2022-11-29T15:37:00.402Z,1.22
2022-11-29T15:39:35.168Z,1.19
2022-11-29T15:42:13.543Z,1.20
2022-11-29T15:44:52.520Z,1.21
2022-11-29T15:47:26.134Z,1.21
2022-11-29T15:49:58.373Z,1.23
2022-11-29T15:52:36.435Z,1.23
2022-11-29T15:55:15.515Z,1.22
2022-11-29T15:57:51.648Z,1.19
2022-11-29T16:00:25.790Z,1.18
2022-11-29T16:03:04.515Z,1.14
2022-11-29T16:05:38.476Z,1.12
2022-11-29T16:08:15.803Z,1.14
2022-11-29T16:10:53.121Z,1.17
2022-11-29T16:13:43.175Z,1.16
2022-11-29T16:16:18.422Z,1.16
2022-11-29T16:18:51.826Z,1.17
2022-11-29T16:21:29.638Z,1.16
2022-11-29T16:24:12.248Z,1.14
2022-11-29T16:26:47.310Z,1.14
2022-11-29T16:29:28.192Z,1.15
2022-11-29T16:32:00.656Z,1.18
2022-11-29T16:34:34.023Z,1.19
2022-11-29T16:37:08.691Z,1.19
2022-11-29T16:39:41.353Z,1.18
2022-11-29T16:42:25.019Z,1.17
2022-11-29T16:45:30.419Z,1.16
2022-11-29T16:48:03.247Z,1.14
2022-11-29T16:50:35.900Z,1.13
2022-11-29T16:53:37.330Z,1.10
2022-11-29T16:56:14.075Z,1.07
2022-11-29T16:59:24.618Z,1.03
2022-11-29T17:01:41.518Z,0.97
2022-11-29T17:04:23.372Z,0.92
2022-11-29T17:06:57.876Z,0.90
2022-11-29T17:09:32.638Z,0.91
2022-11-29T17:12:12.914Z,0.91
2022-11-29T17:14:45.345Z,0.89
2022-11-29T17:17:20.216Z,0.88
2022-11-29T17:19:52.391Z,0.90
2022-11-29T17:22:24.577Z,0.92
2022-11-29T17:24:56.725Z,0.93
2022-11-29T17:27:28.933Z,0.91
2022-11-29T17:30:00.975Z,0.84
2022-11-29T17:32:34.250Z,0.80
2022-11-29T17:35:06.964Z,0.79
2022-11-29T17:37:39.081Z,0.77
2022-11-29T17:40:15.401Z,0.76
2022-11-29T17:42:48.581Z,0.73
2022-11-29T17:45:20.764Z,0.70
2022-11-29T17:47:53.005Z,0.70
2022-11-29T17:50:25.243Z,0.69
2022-11-29T17:52:57.299Z,0.64
2022-11-29T17:55:29.870Z,0.60
2022-11-29T17:58:02.363Z,0.55
2022-11-29T18:00:35.023Z,0.48
2022-11-29T18:03:07.420Z,0.44
2022-11-29T18:05:39.552Z,0.41
2022-11-29T18:08:11.694Z,0.40
2022-11-29T18:10:43.784Z,0.40
2022-11-29T18:13:15.852Z,0.40
2022-11-29T18:15:47.967Z,0.41
2022-11-29T18:18:20.151Z,0.41
2022-11-29T18:20:52.475Z,0.41
2022-11-29T18:23:24.660Z,0.43
2022-11-29T18:26:06.020Z,0.45
2022-11-29T18:28:39.881Z,0.46
2022-11-29T18:31:13.886Z,0.46
2022-11-29T18:33:49.027Z,0.45
2022-11-29T18:36:23.012Z,0.42
2022-11-29T18:38:59.401Z,0.39
2022-11-29T18:41:32.782Z,0.36
2022-11-29T18:44:08.118Z,0.28
2022-11-29T18:46:41.648Z,0.24
2022-11-29T18:49:15.130Z,0.27
2022-11-29T18:51:48.635Z,0.27
2022-11-29T18:54:21.165Z,0.22
2022-11-29T18:56:53.626Z,0.21
2022-11-29T18:59:26.110Z,0.23
2022-11-29T19:01:58.395Z,0.23
2022-11-29T19:04:30.593Z,0.24
2022-11-29T19:07:02.708Z,0.24
2022-11-29T19:09:34.791Z,0.23
2022-11-29T19:12:09.726Z,0.24
2022-11-29T19:14:46.588Z,0.27
2022-11-29T19:17:25.482Z,0.28
2022-11-29T19:19:57.650Z,0.29
2022-11-29T19:22:30.196Z,0.26
2022-11-29T19:25:02.447Z,0.25
2022-11-29T19:27:34.663Z,0.23
2022-11-29T19:30:08.319Z,0.21
2022-11-29T19:32:40.527Z,0.21
2022-11-29T19:35:12.939Z,0.21
2022-11-29T19:37:46.241Z,0.20
2022-11-29T19:40:18.918Z,0.19
2022-11-29T19:42:51.500Z,0.21
2022-11-29T19:45:23.655Z,0.23
2022-11-29T19:47:56.873Z,0.24
2022-11-29T19:50:29.219Z,0.23
2022-11-29T19:53:03.418Z,0.24
2022-11-29T19:55:39.376Z,0.26
2022-11-29T20:01:28.196Z,0.26
2022-11-29T20:04:01.204Z,0.21
2022-11-29T20:06:33.728Z,0.18
2022-11-29T20:09:06.474Z,0.19
2022-11-29T20:11:38.885Z,0.19
2022-11-29T20:14:15.288Z,0.18
2022-11-29T20:16:47.378Z,0.19
2022-11-29T20:19:20.086Z,0.20
2022-11-29T20:21:52.694Z,0.21
2022-11-29T20:24:24.788Z,0.21
2022-11-29T20:26:57.469Z,0.18
2022-11-29T20:29:32.778Z,0.18
2022-11-29T20:32:04.980Z,0.17
2022-11-29T20:34:38.595Z,0.17
2022-11-29T20:37:24.564Z,0.21
2022-11-29T20:40:01.680Z,0.23
2022-11-29T20:42:51.541Z,0.23
2022-11-29T20:45:25.558Z,0.23
2022-11-29T20:48:01.863Z,0.25
2022-11-29T20:50:35.315Z,0.25
2022-11-29T20:53:21.055Z,0.26
2022-11-29T20:55:53.178Z,0.26
2022-11-29T20:58:26.654Z,0.25
2022-11-29T21:00:59.021Z,0.23
2022-11-29T21:03:31.929Z,0.23
2022-11-29T21:06:07.163Z,0.25
2022-11-29T21:08:41.642Z,0.30
2022-11-29T21:11:16.222Z,0.32
2022-11-29T21:13:50.325Z,0.34
2022-11-29T21:16:31.137Z,0.35
2022-11-29T21:19:05.376Z,0.40
2022-11-29T21:21:44.687Z,0.44
2022-11-29T21:24:28.857Z,0.42
2022-11-29T21:27:05.793Z,0.40
2022-11-29T21:29:42.191Z,0.35
2022-11-29T21:32:23.899Z,0.29
2022-11-29T21:34:56.870Z,0.29
2022-11-29T21:37:32.136Z,0.34
2022-11-29T21:40:05.415Z,0.36
2022-11-29T21:42:38.599Z,0.35
2022-11-29T21:45:15.521Z,0.32
2022-11-29T21:47:53.978Z,0.30
2022-11-29T21:50:26.303Z,0.30
2022-11-29T21:52:58.552Z,0.30
2022-11-29T21:55:32.241Z,0.33
2022-11-29T21:58:07.007Z,0.32
2022-11-29T22:00:39.964Z,0.32
2022-11-29T22:03:18.560Z,0.32
2022-11-29T22:05:51.169Z,0.34
2022-11-29T22:08:23.686Z,0.36
2022-11-29T22:11:04.428Z,0.36
2022-11-29T22:13:37.272Z,0.36
2022-11-29T22:16:15.545Z,0.34
2022-11-29T22:18:48.031Z,0.30
2022-11-29T22:21:20.152Z,0.30
2022-11-29T22:23:52.821Z,0.33
2022-11-29T22:26:28.693Z,0.33
2022-11-29T22:29:03.143Z,0.32
2022-11-29T22:31:37.170Z,0.34
2022-11-29T22:34:09.367Z,0.37
2022-11-29T22:36:42.188Z,0.40
2022-11-29T22:39:14.989Z,0.42
2022-11-29T22:41:53.685Z,0.44
2022-11-29T22:44:26.856Z,0.45
2022-11-29T22:46:59.031Z,0.44
2022-11-29T22:49:33.298Z,0.40
2022-11-29T22:52:05.542Z,0.38
2022-11-29T22:54:37.699Z,0.35
2022-11-29T22:57:09.874Z,0.36
2022-11-29T22:59:42.090Z,0.37
2022-11-29T23:02:14.313Z,0.41
2022-11-29T23:04:46.952Z,0.44
2022-11-29T23:07:19.436Z,0.47
2022-11-29T23:09:51.542Z,0.48
2022-11-29T23:12:23.881Z,0.46
2022-11-29T23:14:56.773Z,0.48
2022-11-29T23:17:31.537Z,0.52
2022-11-29T23:20:03.678Z,0.52
2022-11-29T23:22:39.347Z,0.53
2022-11-29T23:25:13.930Z,0.52
2022-11-29T23:27:48.179Z,0.52
2022-11-29T23:30:22.835Z,0.47
2022-11-29T23:32:56.042Z,0.44
2022-11-29T23:35:30.686Z,0.41
2022-11-29T23:38:03.154Z,0.37
2022-11-29T23:40:38.506Z,0.34
2022-11-29T23:43:10.662Z,0.33
2022-11-29T23:45:43.497Z,0.33
2022-11-29T23:48:18.605Z,0.33
2022-11-29T23:50:53.893Z,0.32
2022-11-29T23:53:26.143Z,0.29
2022-11-29T23:56:03.941Z,0.29
2022-11-29T23:58:38.093Z,0.25
